Time;durP1;ratioP1;P1;durP2;ratioP2;P2;SDS_P1;SDS_P2;PMS_P1;PMS_P2;Temp;Humidity;BMP_temperature;BMP_pressure;BME280_temperature;BME280_humidity;BME280_pressure;Samples;Min_cycle;Max_cycle;Signal;HPM_P1;HPM_P2
2022/03/16 00:01:54;;;;;;;22.38;13.23;;;;;;;;;;5006303;28;20494;-75
2022/03/16 00:04:20;;;;;;;22.73;13.13;;;;;;;;;;5007059;28;20029;-75
2022/03/16 00:06:46;;;;;;;25.88;14.80;;;;;;;;;;5006093;28;20060;-75
2022/03/16 00:09:11;;;;;;;26.77;15.10;;;;;;;;;;5006257;28;20064;-76
2022/03/16 00:11:37;;;;;;;25.10;14.75;;;;;;;;;;5006763;28;20037;-76
2022/03/16 00:14:02;;;;;;;23.63;14.52;;;;;;;;;;5006141;28;20026;-74
2022/03/16 00:16:27;;;;;;;24.25;13.88;;;;;;;;;;5006421;28;20073;-76
2022/03/16 00:18:53;;;;;;;22.70;13.73;;;;;;;;;;5006065;28;20022;-76
2022/03/16 00:21:18;;;;;;;24.33;13.98;;;;;;;;;;5004710;28;20033;-75
2022/03/16 00:23:44;;;;;;;24.83;15.20;;;;;;;;;;5005667;28;20349;-76
2022/03/16 00:26:09;;;;;;;25.67;14.20;;;;;;;;;;5006302;28;20032;-76
2022/03/16 00:28:34;;;;;;;24.67;13.55;;;;;;;;;;5004991;28;20168;-75
2022/03/16 00:31:02;;;;;;;23.38;14.82;;;;;;;;;;5006108;28;20105;-76
2022/03/16 00:33:27;;;;;;;21.63;12.90;;;;;;;;;;5006234;28;20432;-76
2022/03/16 00:35:53;;;;;;;24.95;13.93;;;;;;;;;;5007706;28;20105;-74
2022/03/16 00:38:18;;;;;;;23.77;13.93;;;;;;;;;;5010051;28;20026;-76
2022/03/16 00:40:43;;;;;;;23.05;13.13;;;;;;;;;;5009584;28;20041;-76
2022/03/16 00:43:09;;;;;;;26.50;13.63;;;;;;;;;;5010370;28;20395;-76
2022/03/16 00:45:34;;;;;;;21.98;12.60;;;;;;;;;;5009526;28;20459;-76
2022/03/16 00:47:59;;;;;;;22.95;12.73;;;;;;;;;;5009217;28;20026;-75
2022/03/16 00:50:25;;;;;;;25.67;13.38;;;;;;;;;;5010386;28;20026;-75
2022/03/16 00:52:50;;;;;;;21.95;12.85;;;;;;;;;;5009463;28;20033;-76
2022/03/16 00:55:16;;;;;;;22.70;12.18;;;;;;;;;;5010098;28;20025;-75
2022/03/16 00:57:41;;;;;;;22.38;12.80;;;;;;;;;;5009979;28;20443;-77
2022/03/16 01:00:07;;;;;;;21.65;12.25;;;;;;;;;;5008750;28;20048;-75
2022/03/16 01:02:32;;;;;;;20.40;12.07;;;;;;;;;;5017972;28;20624;-75
2022/03/16 01:04:58;;;;;;;21.40;12.32;;;;;;;;;;5029315;28;20057;-75
2022/03/16 01:07:24;;;;;;;22.52;12.40;;;;;;;;;;5027737;28;20025;-75
2022/03/16 01:09:49;;;;;;;24.55;12.98;;;;;;;;;;5029015;28;20017;-76
2022/03/16 01:12:15;;;;;;;24.40;13.10;;;;;;;;;;5029048;28;20013;-76
2022/03/16 01:14:40;;;;;;;24.45;13.02;;;;;;;;;;5029099;28;20045;-74
2022/03/16 01:17:06;;;;;;;24.42;13.05;;;;;;;;;;5029690;28;20028;-74
2022/03/16 01:19:34;;;;;;;25.73;13.43;;;;;;;;;;5028740;28;20022;-74
2022/03/16 01:22:00;;;;;;;24.08;13.32;;;;;;;;;;5028566;28;20079;-74
2022/03/16 01:24:26;;;;;;;22.55;12.25;;;;;;;;;;5029880;28;20034;-74
2022/03/16 01:26:51;;;;;;;23.90;12.90;;;;;;;;;;5028704;28;20386;-76
2022/03/16 01:29:16;;;;;;;21.77;12.63;;;;;;;;;;5028407;28;20017;-74
2022/03/16 01:31:41;;;;;;;23.83;13.05;;;;;;;;;;5028706;28;20025;-76
2022/03/16 01:34:07;;;;;;;25.95;13.98;;;;;;;;;;5029867;28;20026;-75
2022/03/16 01:36:32;;;;;;;24.90;13.27;;;;;;;;;;5032175;28;20107;-75
2022/03/16 01:38:57;;;;;;;24.27;13.50;;;;;;;;;;5016393;28;20034;-75
2022/03/16 01:41:23;;;;;;;24.38;13.50;;;;;;;;;;5008361;28;20030;-74
2022/03/16 01:43:56;;;;;;;24.63;12.95;;;;;;;;;;5009043;28;20026;-76
2022/03/16 01:46:21;;;;;;;26.50;14.20;;;;;;;;;;5008446;28;20029;-75
2022/03/16 01:48:47;;;;;;;25.15;13.27;;;;;;;;;;5007497;28;20022;-76
2022/03/16 01:51:12;;;;;;;23.40;12.55;;;;;;;;;;5008660;28;20392;-75
2022/03/16 01:53:40;;;;;;;24.50;13.35;;;;;;;;;;5008569;28;20045;-76
2022/03/16 01:56:06;;;;;;;24.52;13.27;;;;;;;;;;5007935;28;20153;-76
2022/03/16 01:58:31;;;;;;;21.65;11.05;;;;;;;;;;5008513;28;20113;-76
2022/03/16 02:00:56;;;;;;;23.15;12.57;;;;;;;;;;5008138;28;20423;-75
2022/03/16 02:03:22;;;;;;;23.35;11.63;;;;;;;;;;5008027;28;20101;-74
2022/03/16 02:05:47;;;;;;;23.40;12.55;;;;;;;;;;5008732;28;20017;-75
2022/03/16 02:08:13;;;;;;;26.00;13.48;;;;;;;;;;5008501;28;20112;-75
2022/03/16 02:10:40;;;;;;;24.98;12.57;;;;;;;;;;5006965;28;20053;-75
2022/03/16 02:13:08;;;;;;;24.48;12.75;;;;;;;;;;5008568;28;20030;-75
2022/03/16 02:15:34;;;;;;;20.48;11.35;;;;;;;;;;5008666;28;20029;-76
2022/03/16 02:17:59;;;;;;;23.05;12.93;;;;;;;;;;5007457;28;20498;-76
2022/03/16 02:20:27;;;;;;;23.05;12.15;;;;;;;;;;5030341;23;20054;-72
2022/03/16 02:22:56;;;;;;;24.90;14.05;;;;;;;;;;5007912;28;20487;-72
2022/03/16 02:25:23;;;;;;;22.55;12.43;;;;;;;;;;5007777;28;20030;-72
2022/03/16 02:27:49;;;;;;;23.30;12.60;;;;;;;;;;5008719;28;20356;-73
2022/03/16 02:30:15;;;;;;;22.98;12.55;;;;;;;;;;5008302;28;20096;-71
2022/03/16 02:32:41;;;;;;;21.58;11.63;;;;;;;;;;5007592;28;20022;-72
2022/03/16 02:35:06;;;;;;;23.70;12.65;;;;;;;;;;5008662;28;20026;-72
2022/03/16 02:37:36;;;;;;;20.23;11.23;;;;;;;;;;5007578;28;20037;-72
2022/03/16 02:40:01;;;;;;;21.70;11.05;;;;;;;;;;5012458;28;20025;-72
2022/03/16 02:42:27;;;;;;;20.98;10.88;;;;;;;;;;5027906;28;20031;-72
2022/03/16 02:44:52;;;;;;;23.65;12.65;;;;;;;;;;5028090;28;20056;-72
2022/03/16 02:47:17;;;;;;;21.02;11.32;;;;;;;;;;5027126;28;20467;-72
2022/03/16 02:49:43;;;;;;;19.45;10.80;;;;;;;;;;5027465;28;20032;-73
2022/03/16 02:52:09;;;;;;;19.92;11.75;;;;;;;;;;5027151;28;20021;-72
2022/03/16 02:54:35;;;;;;;22.25;11.40;;;;;;;;;;5027090;28;20079;-72
2022/03/16 02:57:00;;;;;;;21.67;10.88;;;;;;;;;;5027632;28;20033;-72
2022/03/16 02:59:26;;;;;;;19.25;10.40;;;;;;;;;;5026476;28;20529;-72
2022/03/16 03:01:52;;;;;;;22.15;10.93;;;;;;;;;;5027245;28;20383;-72
2022/03/16 03:04:17;;;;;;;19.27;10.70;;;;;;;;;;5028031;28;20052;-72
2022/03/16 03:06:42;;;;;;;20.10;10.70;;;;;;;;;;5026857;28;20523;-72
2022/03/16 03:09:08;;;;;;;21.77;11.30;;;;;;;;;;5027506;28;20032;-72
2022/03/16 03:11:33;;;;;;;21.63;11.38;;;;;;;;;;5017079;28;20029;-72
2022/03/16 03:13:58;;;;;;;19.50;10.60;;;;;;;;;;5007189;28;20026;-72
2022/03/16 03:16:23;;;;;;;17.88;9.90;;;;;;;;;;5007579;28;20073;-72
2022/03/16 03:18:49;;;;;;;19.35;10.65;;;;;;;;;;5006416;28;20029;-72
2022/03/16 03:21:14;;;;;;;19.20;10.50;;;;;;;;;;5007227;28;20033;-72
2022/03/16 03:23:39;;;;;;;20.30;11.40;;;;;;;;;;5007432;28;20057;-72
2022/03/16 03:26:05;;;;;;;23.48;11.25;;;;;;;;;;5006895;28;20406;-72
2022/03/16 03:28:30;;;;;;;18.75;9.55;;;;;;;;;;5007164;28;20053;-72
2022/03/16 03:30:55;;;;;;;18.67;9.77;;;;;;;;;;5007179;28;20471;-72
2022/03/16 03:33:20;;;;;;;20.15;10.80;;;;;;;;;;5006212;28;20395;-72
2022/03/16 03:35:46;;;;;;;20.15;10.30;;;;;;;;;;5007863;28;20116;-73
2022/03/16 03:38:13;;;;;;;18.42;10.27;;;;;;;;;;5006513;28;20047;-72
2022/03/16 03:40:38;;;;;;;18.20;9.35;;;;;;;;;;5005428;28;20116;-72
2022/03/16 03:43:04;;;;;;;16.98;9.10;;;;;;;;;;5008058;28;20137;-72
2022/03/16 03:45:29;;;;;;;20.00;10.32;;;;;;;;;;5006644;28;20029;-72
2022/03/16 03:47:54;;;;;;;18.00;9.55;;;;;;;;;;5007221;28;20021;-72
2022/03/16 03:50:20;;;;;;;18.13;9.30;;;;;;;;;;5006524;28;20160;-73
2022/03/16 03:52:45;;;;;;;17.65;9.82;;;;;;;;;;5006729;28;20392;-72
2022/03/16 03:55:10;;;;;;;17.85;9.45;;;;;;;;;;5006985;28;20278;-73
2022/03/16 03:57:36;;;;;;;17.80;9.20;;;;;;;;;;5006474;28;20025;-72
2022/03/16 04:00:01;;;;;;;17.83;9.07;;;;;;;;;;5007100;28;20026;-72
2022/03/16 04:02:27;;;;;;;18.95;9.98;;;;;;;;;;5006789;28;20466;-72
2022/03/16 04:04:52;;;;;;;18.45;9.38;;;;;;;;;;5006769;28;20533;-72
2022/03/16 04:07:17;;;;;;;18.98;9.10;;;;;;;;;;5007667;28;20025;-72
2022/03/16 04:09:43;;;;;;;18.13;9.73;;;;;;;;;;5006642;28;20018;-72
2022/03/16 04:12:08;;;;;;;19.00;8.85;;;;;;;;;;5010500;28;20053;-73
2022/03/16 04:14:34;;;;;;;18.70;9.85;;;;;;;;;;5010669;28;20053;-72
2022/03/16 04:16:59;;;;;;;16.75;9.55;;;;;;;;;;5010210;28;20116;-72
2022/03/16 04:19:24;;;;;;;19.85;10.57;;;;;;;;;;5009413;28;20041;-72
2022/03/16 04:21:50;;;;;;;19.75;10.68;;;;;;;;;;5010252;28;20506;-72
2022/03/16 04:24:15;;;;;;;18.92;9.88;;;;;;;;;;5009983;28;20284;-72
2022/03/16 04:26:40;;;;;;;18.58;9.63;;;;;;;;;;5011066;28;20103;-72
2022/03/16 04:29:06;;;;;;;18.67;9.95;;;;;;;;;;5010193;28;20024;-73
2022/03/16 04:31:31;;;;;;;18.35;9.75;;;;;;;;;;5010134;28;20522;-72
2022/03/16 04:33:57;;;;;;;16.27;9.00;;;;;;;;;;5010571;28;20021;-73
2022/03/16 04:36:23;;;;;;;16.35;8.63;;;;;;;;;;5009963;28;20100;-73
2022/03/16 04:38:50;;;;;;;17.50;9.95;;;;;;;;;;5010127;28;20117;-73
2022/03/16 04:41:15;;;;;;;18.42;10.15;;;;;;;;;;5010198;28;20415;-72
2022/03/16 04:43:41;;;;;;;20.85;11.48;;;;;;;;;;5010435;28;20557;-72
2022/03/16 04:46:06;;;;;;;18.02;9.65;;;;;;;;;;5009602;28;20054;-72
2022/03/16 04:48:31;;;;;;;17.05;9.50;;;;;;;;;;5009604;28;20504;-72
2022/03/16 04:50:56;;;;;;;17.17;9.77;;;;;;;;;;5009744;28;20119;-72
2022/03/16 04:53:22;;;;;;;19.45;10.15;;;;;;;;;;5010328;28;20157;-73
2022/03/16 04:55:47;;;;;;;19.23;10.52;;;;;;;;;;5009713;28;20074;-72
2022/03/16 04:58:12;;;;;;;18.83;10.50;;;;;;;;;;5009605;28;20088;-72
2022/03/16 05:00:38;;;;;;;16.63;9.77;;;;;;;;;;5006342;28;20436;-73
2022/03/16 05:03:04;;;;;;;17.88;9.23;;;;;;;;;;5009423;28;20496;-72
2022/03/16 05:05:30;;;;;;;18.13;9.45;;;;;;;;;;5009944;28;20399;-73
2022/03/16 05:07:56;;;;;;;17.98;9.93;;;;;;;;;;5009238;28;20464;-73
2022/03/16 05:10:21;;;;;;;19.83;10.00;;;;;;;;;;5009136;28;20025;-73
2022/03/16 05:12:47;;;;;;;17.58;9.48;;;;;;;;;;5009965;28;20022;-71
2022/03/16 05:15:17;;;;;;;17.58;9.82;;;;;;;;;;5008923;28;20084;-73
2022/03/16 05:17:43;;;;;;;16.90;9.75;;;;;;;;;;5008883;28;20022;-73
2022/03/16 05:20:09;;;;;;;17.20;9.18;;;;;;;;;;5009150;28;20403;-73
2022/03/16 05:22:48;;;;;;;20.60;10.65;;;;;;;;;;5008856;28;20468;-71
2022/03/16 05:25:19;;;;;;;18.90;9.93;;;;;;;;;;5009899;28;20427;-72
2022/03/16 05:27:45;;;;;;;18.23;9.75;;;;;;;;;;5009023;28;20539;-72
2022/03/16 05:30:11;;;;;;;17.90;9.63;;;;;;;;;;5008607;28;20040;-73
2022/03/16 05:32:39;;;;;;;18.98;9.65;;;;;;;;;;5009541;28;20025;-73
2022/03/16 05:35:05;;;;;;;19.88;9.85;;;;;;;;;;5007310;28;20391;-73
2022/03/16 05:37:30;;;;;;;18.95;10.10;;;;;;;;;;5009063;28;20037;-74
2022/03/16 05:39:56;;;;;;;17.25;8.82;;;;;;;;;;5008940;28;20045;-74
2022/03/16 05:42:21;;;;;;;20.33;10.30;;;;;;;;;;5008613;28;20440;-73
2022/03/16 05:44:46;;;;;;;21.65;10.32;;;;;;;;;;5009396;28;20053;-73
2022/03/16 05:47:12;;;;;;;20.15;10.45;;;;;;;;;;5009003;28;20287;-72
2022/03/16 05:49:38;;;;;;;21.25;10.32;;;;;;;;;;5008148;28;20033;-72
2022/03/16 05:52:04;;;;;;;20.10;10.23;;;;;;;;;;5009085;28;20284;-74
2022/03/16 05:54:29;;;;;;;20.85;10.50;;;;;;;;;;5008840;28;20112;-73
2022/03/16 05:56:54;;;;;;;22.05;10.98;;;;;;;;;;5008473;28;20172;-72
2022/03/16 05:59:20;;;;;;;19.33;11.07;;;;;;;;;;5008725;28;20026;-73
2022/03/16 06:01:45;;;;;;;19.58;10.73;;;;;;;;;;5008047;28;20026;-73
2022/03/16 06:04:10;;;;;;;19.95;9.77;;;;;;;;;;5008488;28;20537;-74
2022/03/16 06:06:35;;;;;;;18.20;9.80;;;;;;;;;;5008755;28;20064;-73
2022/03/16 06:09:01;;;;;;;16.77;8.93;;;;;;;;;;5007988;28;20367;-73
2022/03/16 06:11:27;;;;;;;15.40;8.98;;;;;;;;;;5008636;28;20026;-72
2022/03/16 06:13:52;;;;;;;16.48;9.38;;;;;;;;;;5008292;28;20387;-73
2022/03/16 06:16:18;;;;;;;14.98;7.90;;;;;;;;;;5008404;28;20030;-74
2022/03/16 06:18:43;;;;;;;18.17;9.43;;;;;;;;;;5007959;28;20029;-73
2022/03/16 06:21:08;;;;;;;17.75;9.10;;;;;;;;;;5008268;28;20025;-73
2022/03/16 06:23:35;;;;;;;15.82;8.43;;;;;;;;;;5007836;28;20049;-74
2022/03/16 06:26:01;;;;;;;15.07;8.90;;;;;;;;;;5008347;28;20025;-73
2022/03/16 06:28:26;;;;;;;46.50;31.80;;;;;;;;;;5007748;28;20022;-74
2022/03/16 06:30:51;;;;;;;24.90;17.50;;;;;;;;;;5007578;28;20029;-72
2022/03/16 06:33:17;;;;;;;15.75;9.38;;;;;;;;;;5007756;28;20021;-73
2022/03/16 06:35:42;;;;;;;15.82;9.52;;;;;;;;;;5007278;28;20080;-74
2022/03/16 06:38:08;;;;;;;14.55;8.85;;;;;;;;;;5007734;28;20032;-74
2022/03/16 06:40:33;;;;;;;16.75;9.88;;;;;;;;;;5007913;28;20081;-73
2022/03/16 06:42:59;;;;;;;16.23;9.88;;;;;;;;;;5007488;28;20053;-73
2022/03/16 06:45:26;;;;;;;16.48;10.35;;;;;;;;;;5008052;28;20029;-73
2022/03/16 06:47:59;;;;;;;16.15;9.55;;;;;;;;;;5007627;28;20064;-74
2022/03/16 06:50:26;;;;;;;17.13;9.73;;;;;;;;;;5007449;28;20386;-73
2022/03/16 06:52:53;;;;;;;15.57;9.07;;;;;;;;;;5007361;28;20502;-74
2022/03/16 06:55:18;;;;;;;16.00;9.10;;;;;;;;;;5007609;28;20114;-73
2022/03/16 06:57:43;;;;;;;15.82;8.90;;;;;;;;;;5007113;28;20497;-73
2022/03/16 07:00:12;;;;;;;15.02;8.73;;;;;;;;;;5006944;28;20080;-73
2022/03/16 07:02:51;;;;;;;15.07;9.00;;;;;;;;;;5011888;28;20028;-73
2022/03/16 07:05:16;;;;;;;16.73;9.18;;;;;;;;;;4994830;28;20097;-74
2022/03/16 07:07:41;;;;;;;14.85;7.90;;;;;;;;;;5010766;28;20029;-75
2022/03/16 07:10:07;;;;;;;16.25;9.18;;;;;;;;;;5005312;28;20026;-74
2022/03/16 07:12:33;;;;;;;16.98;9.82;;;;;;;;;;5007891;28;20091;-73
2022/03/16 07:14:58;;;;;;;19.75;11.45;;;;;;;;;;5006667;28;20073;-73
2022/03/16 07:17:23;;;;;;;18.02;10.55;;;;;;;;;;5006853;28;20025;-72
2022/03/16 07:19:49;;;;;;;18.30;10.63;;;;;;;;;;5020561;28;20033;-73
2022/03/16 07:22:14;;;;;;;18.92;9.82;;;;;;;;;;5006265;28;20710;-72
2022/03/16 07:24:40;;;;;;;19.02;10.90;;;;;;;;;;5006798;28;20037;-73
2022/03/16 07:27:07;;;;;;;20.75;11.35;;;;;;;;;;5006453;28;20508;-72
2022/03/16 07:29:32;;;;;;;20.27;11.18;;;;;;;;;;5009705;28;20030;-72
2022/03/16 07:31:58;;;;;;;20.75;10.80;;;;;;;;;;5026388;28;20037;-72
2022/03/16 07:34:24;;;;;;;20.25;11.13;;;;;;;;;;5026418;28;20276;-73
2022/03/16 07:36:49;;;;;;;20.95;11.68;;;;;;;;;;5026642;28;20049;-71
2022/03/16 07:39:14;;;;;;;20.00;11.43;;;;;;;;;;5025962;28;20476;-73
2022/03/16 07:41:40;;;;;;;22.33;11.70;;;;;;;;;;5025276;28;20021;-72
2022/03/16 07:44:06;;;;;;;18.65;11.00;;;;;;;;;;5026448;28;20028;-72
2022/03/16 07:46:31;;;;;;;21.80;12.20;;;;;;;;;;5021309;28;20079;-72
2022/03/16 07:48:56;;;;;;;22.30;11.90;;;;;;;;;;5023383;28;20017;-72
2022/03/16 07:51:22;;;;;;;23.50;12.10;;;;;;;;;;5028398;28;20041;-72
2022/03/16 07:53:47;;;;;;;22.45;11.88;;;;;;;;;;5010337;28;20022;-70
2022/03/16 07:56:12;;;;;;;23.02;12.95;;;;;;;;;;5011641;28;20029;-73
2022/03/16 07:58:40;;;;;;;20.80;11.48;;;;;;;;;;5022141;28;20426;-73
2022/03/16 08:01:05;;;;;;;20.73;12.18;;;;;;;;;;5025440;28;20087;-73
2022/03/16 08:03:31;;;;;;;22.23;12.20;;;;;;;;;;5024970;28;20026;-72
2022/03/16 08:05:56;;;;;;;21.48;11.88;;;;;;;;;;5025890;28;20116;-71
2022/03/16 08:08:22;;;;;;;19.45;11.32;;;;;;;;;;5025779;28;20024;-73
2022/03/16 08:10:47;;;;;;;22.80;12.82;;;;;;;;;;5013222;28;20034;-72
2022/03/16 08:13:13;;;;;;;21.52;12.68;;;;;;;;;;4989857;28;20064;-73
2022/03/16 08:15:38;;;;;;;21.42;12.25;;;;;;;;;;4989526;28;20562;-72
2022/03/16 08:18:03;;;;;;;22.08;12.90;;;;;;;;;;5006392;28;20033;-73
2022/03/16 08:20:28;;;;;;;20.30;11.40;;;;;;;;;;5027223;23;20046;-71
2022/03/16 08:22:57;;;;;;;20.73;12.10;;;;;;;;;;5012653;28;20032;-71
2022/03/16 08:25:23;;;;;;;21.00;11.57;;;;;;;;;;5018717;28;20025;-72
2022/03/16 08:27:49;;;;;;;21.85;12.18;;;;;;;;;;5006101;28;20037;-71
2022/03/16 08:30:18;;;;;;;20.95;12.02;;;;;;;;;;5013603;28;20037;-73
2022/03/16 08:32:43;;;;;;;19.95;12.10;;;;;;;;;;5005430;28;20315;-72
2022/03/16 08:35:11;;;;;;;20.63;11.75;;;;;;;;;;5006095;28;20109;-71
2022/03/16 08:37:37;;;;;;;21.20;11.85;;;;;;;;;;5006569;28;20116;-73
2022/03/16 08:40:03;;;;;;;20.13;11.98;;;;;;;;;;5006440;28;20037;-71
2022/03/16 08:42:29;;;;;;;20.70;12.32;;;;;;;;;;5006505;28;20518;-70
2022/03/16 08:44:55;;;;;;;20.55;11.82;;;;;;;;;;5006340;28;20029;-72
2022/03/16 08:47:21;;;;;;;20.50;11.80;;;;;;;;;;5006393;28;20036;-74
2022/03/16 08:49:51;;;;;;;19.98;11.68;;;;;;;;;;5006262;28;20030;-71
2022/03/16 08:52:17;;;;;;;18.95;11.70;;;;;;;;;;5007147;28;20037;-75
2022/03/16 08:54:44;;;;;;;22.27;11.70;;;;;;;;;;5008138;28;20030;-72
2022/03/16 08:57:09;;;;;;;19.83;11.95;;;;;;;;;;5011099;28;20034;-71
2022/03/16 08:59:36;;;;;;;18.17;11.20;;;;;;;;;;5010073;28;20021;-72
2022/03/16 09:02:01;;;;;;;16.83;10.45;;;;;;;;;;5009540;28;20117;-71
2022/03/16 09:04:26;;;;;;;15.02;9.98;;;;;;;;;;5009256;28;20116;-71
2022/03/16 09:06:51;;;;;;;16.50;10.75;;;;;;;;;;5009242;28;20029;-73
2022/03/16 09:09:17;;;;;;;18.85;10.85;;;;;;;;;;5009342;28;20018;-71
2022/03/16 09:11:42;;;;;;;15.85;10.57;;;;;;;;;;5008836;28;20037;-71
2022/03/16 09:14:07;;;;;;;15.77;10.15;;;;;;;;;;5010046;28;20472;-72
2022/03/16 09:16:34;;;;;;;13.90;9.85;;;;;;;;;;5009703;28;20563;-71
2022/03/16 09:18:59;;;;;;;17.65;11.15;;;;;;;;;;5008812;28;20034;-71
2022/03/16 09:21:25;;;;;;;15.07;10.57;;;;;;;;;;5009476;28;20022;-71
2022/03/16 09:23:52;;;;;;;13.88;10.02;;;;;;;;;;5009214;28;20034;-71
2022/03/16 09:26:18;;;;;;;14.52;10.40;;;;;;;;;;5008901;28;20033;-70
2022/03/16 09:28:44;;;;;;;14.25;9.93;;;;;;;;;;5011396;28;20018;-71
2022/03/16 09:31:10;;;;;;;14.32;10.30;;;;;;;;;;4995246;28;20034;-71
2022/03/16 09:33:35;;;;;;;15.07;10.02;;;;;;;;;;4989442;28;20022;-71
2022/03/16 09:36:03;;;;;;;14.77;10.02;;;;;;;;;;5000031;28;20022;-72
2022/03/16 09:38:28;;;;;;;12.73;8.85;;;;;;;;;;5008749;28;20026;-71
2022/03/16 09:40:57;;;;;;;13.52;9.88;;;;;;;;;;5008647;28;20033;-72
2022/03/16 09:43:23;;;;;;;15.73;10.35;;;;;;;;;;5008687;28;20058;-72
2022/03/16 09:45:56;;;;;;;13.85;10.05;;;;;;;;;;5008117;28;20025;-71
2022/03/16 09:48:23;;;;;;;14.50;10.35;;;;;;;;;;5008266;28;20018;-71
2022/03/16 09:50:51;;;;;;;13.38;10.10;;;;;;;;;;5008775;28;20036;-71
2022/03/16 09:53:16;;;;;;;13.18;10.05;;;;;;;;;;5008585;28;20033;-73
2022/03/16 09:55:42;;;;;;;12.48;9.15;;;;;;;;;;5008089;28;20025;-71
2022/03/16 09:58:07;;;;;;;11.52;9.13;;;;;;;;;;5008780;28;20025;-72
2022/03/16 10:00:33;;;;;;;11.80;8.95;;;;;;;;;;5009225;28;20051;-72
2022/03/16 10:03:02;;;;;;;12.43;9.00;;;;;;;;;;5009427;28;20034;-72
2022/03/16 10:05:28;;;;;;;12.50;9.32;;;;;;;;;;5008003;28;20407;-72
2022/03/16 10:07:54;;;;;;;12.07;8.90;;;;;;;;;;5007467;28;20036;-71
2022/03/16 10:13:14;;;;;;;14.57;8.40;;;;;;;;;;5008370;28;20124;-73
2022/03/16 10:15:39;;;;;;;12.45;9.55;;;;;;;;;;5008327;28;20030;-71
2022/03/16 10:18:05;;;;;;;12.10;8.63;;;;;;;;;;5007570;28;20108;-71
2022/03/16 10:20:42;;;;;;;15.25;10.23;;;;;;;;;;5008310;28;20446;-72
2022/03/16 10:23:24;;;;;;;12.75;9.15;;;;;;;;;;5008489;28;20022;-71
2022/03/16 10:25:53;;;;;;;;;;;;;;;;;;5007304;28;20033;-71
2022/03/16 10:28:21;;;;;;;12.50;8.50;;;;;;;;;;5008611;28;19917;-71
2022/03/16 10:30:52;;;;;;;15.48;9.98;;;;;;;;;;5007626;28;20469;-71
2022/03/16 10:33:19;;;;;;;12.65;9.05;;;;;;;;;;5008734;28;20036;-71
2022/03/16 10:36:18;;;;;;;14.95;9.80;;;;;;;;;;5007843;28;20479;-71
2022/03/16 10:38:51;;;;;;;13.30;9.70;;;;;;;;;;5002103;28;20037;-71
2022/03/16 10:46:57;;;;;;;11.27;8.27;;;;;;;;;;4998441;28;20068;-70
2022/03/16 10:49:23;;;;;;;14.55;9.75;;;;;;;;;;5006631;28;20057;-72
2022/03/16 10:52:02;;;;;;;14.48;9.35;;;;;;;;;;5007397;28;20029;-71
2022/03/16 10:54:28;;;;;;;13.90;9.95;;;;;;;;;;5007643;28;20029;-71
2022/03/16 10:56:54;;;;;;;12.20;8.25;;;;;;;;;;5007073;28;20036;-71
2022/03/16 10:59:25;;;;;;;16.45;9.80;;;;;;;;;;5006347;28;20038;-71
2022/03/16 11:01:51;;;;;;;15.45;11.60;;;;;;;;;;5003480;28;20018;-72
2022/03/16 11:04:18;;;;;;;15.60;9.75;;;;;;;;;;5006245;28;20388;-71
2022/03/16 11:06:44;;;;;;;14.05;9.52;;;;;;;;;;5008608;28;20034;-71
2022/03/16 11:09:10;;;;;;;13.93;9.75;;;;;;;;;;5005727;28;20022;-69
2022/03/16 11:14:20;;;;;;;13.05;9.02;;;;;;;;;;5006857;28;20040;-72
2022/03/16 11:16:46;;;;;;;15.15;9.80;;;;;;;;;;5006199;28;20025;-69
2022/03/16 11:19:17;;;;;;;14.23;9.55;;;;;;;;;;5006606;28;20049;-69
2022/03/16 11:22:00;;;;;;;17.60;10.68;;;;;;;;;;5006559;28;20022;-69
2022/03/16 11:24:30;;;;;;;14.20;10.32;;;;;;;;;;5006796;28;20026;-70
2022/03/16 11:27:13;;;;;;;13.40;8.63;;;;;;;;;;5006778;28;20498;-71
2022/03/16 11:30:06;;;;;;;15.73;10.63;;;;;;;;;;5006618;28;20335;-71
2022/03/16 11:32:38;;;;;;;14.00;9.15;;;;;;;;;;5007403;28;20022;-71
2022/03/16 11:35:07;;;;;;;13.90;9.52;;;;;;;;;;5007115;28;20435;-70
2022/03/16 11:37:45;;;;;;;15.98;10.82;;;;;;;;;;5007262;28;20021;-71
2022/03/16 11:40:14;;;;;;;13.18;8.57;;;;;;;;;;5005198;28;20030;-70
2022/03/16 11:43:04;;;;;;;13.52;9.50;;;;;;;;;;5006938;28;20033;-70
2022/03/16 11:45:41;;;;;;;12.80;8.55;;;;;;;;;;5006378;28;20029;-70
2022/03/16 11:48:35;;;;;;;12.30;8.80;;;;;;;;;;5006156;28;20037;-70
2022/03/16 11:51:11;;;;;;;12.93;9.38;;;;;;;;;;5006963;28;20423;-70
2022/03/16 11:53:46;;;;;;;15.73;9.77;;;;;;;;;;5007216;28;20176;-70
2022/03/16 11:56:23;;;;;;;14.55;10.15;;;;;;;;;;5007273;28;20022;-69
2022/03/16 11:58:51;;;;;;;15.23;8.95;;;;;;;;;;5007338;28;20435;-68
2022/03/16 12:01:31;;;;;;;14.82;9.60;;;;;;;;;;5006295;28;20035;-68
2022/03/16 12:04:12;;;;;;;14.80;9.52;;;;;;;;;;5006855;28;20078;-70
2022/03/16 12:07:14;;;;;;;18.23;10.27;;;;;;;;;;5006798;28;20096;-71
2022/03/16 12:09:51;;;;;;;16.02;9.70;;;;;;;;;;4999964;28;20038;-71
2022/03/16 12:15:41;;;;;;;14.37;9.50;;;;;;;;;;4986658;28;20126;-71
2022/03/16 12:18:14;;;;;;;14.77;10.30;;;;;;;;;;4987553;28;20018;-70
2022/03/16 12:20:53;;;;;;;;;;;;;;;;;;4987374;28;20084;-70
2022/03/16 12:23:38;;;;;;;16.10;10.77;;;;;;;;;;4987067;28;19917;-70
2022/03/16 12:26:04;;;;;;;14.75;10.07;;;;;;;;;;4987002;28;20503;-70
2022/03/16 12:31:16;;;;;;;15.57;10.38;;;;;;;;;;4987876;28;20523;-69
2022/03/16 12:33:52;;;;;;;13.65;9.43;;;;;;;;;;4990286;28;20034;-70
2022/03/16 12:36:21;;;;;;;11.65;7.97;;;;;;;;;;4990633;28;20437;-70
2022/03/16 12:38:58;;;;;;;12.68;8.40;;;;;;;;;;4989996;28;20026;-70
2022/03/16 12:44:11;;;;;;;11.32;8.00;;;;;;;;;;5009987;28;20037;-70
2022/03/16 12:46:44;;;;;;;12.05;7.90;;;;;;;;;;5009673;28;20069;-71
2022/03/16 12:49:11;;;;;;;12.27;8.30;;;;;;;;;;5008127;28;20018;-70
2022/03/16 12:51:38;;;;;;;11.77;8.13;;;;;;;;;;5007936;28;20597;-71
2022/03/16 12:54:05;;;;;;;15.50;10.32;;;;;;;;;;5009368;28;20030;-70
2022/03/16 12:56:31;;;;;;;13.73;9.80;;;;;;;;;;5009580;28;20061;-71
2022/03/16 12:58:57;;;;;;;14.82;9.77;;;;;;;;;;5009462;28;20526;-70
2022/03/16 13:01:23;;;;;;;13.93;9.30;;;;;;;;;;5009475;28;20037;-70
2022/03/16 13:04:00;;;;;;;16.50;10.38;;;;;;;;;;5009360;28;20025;-70
2022/03/16 13:06:26;;;;;;;14.70;10.43;;;;;;;;;;5010185;28;20117;-71
2022/03/16 13:08:52;;;;;;;13.77;10.15;;;;;;;;;;5009660;28;20434;-70
2022/03/16 13:11:25;;;;;;;14.88;10.40;;;;;;;;;;5007621;28;20026;-70
2022/03/16 13:14:06;;;;;;;13.60;9.77;;;;;;;;;;5009808;28;20034;-70
2022/03/16 13:16:38;;;;;;;14.98;10.20;;;;;;;;;;5009460;28;20069;-70
2022/03/16 13:19:07;;;;;;;16.83;10.93;;;;;;;;;;5009397;28;20268;-72
2022/03/16 13:21:34;;;;;;;15.35;11.27;;;;;;;;;;5009095;28;20034;-71
2022/03/16 13:24:17;;;;;;;16.10;10.50;;;;;;;;;;5008925;28;20167;-70
2022/03/16 13:26:42;;;;;;;17.83;11.30;;;;;;;;;;5009342;28;20022;-70
2022/03/16 13:29:09;;;;;;;19.85;11.75;;;;;;;;;;5008246;28;20037;-70
2022/03/16 13:32:03;;;;;;;16.42;10.63;;;;;;;;;;5008256;28;20034;-71
2022/03/16 13:34:33;;;;;;;15.05;9.88;;;;;;;;;;5009164;28;20030;-70
2022/03/16 13:36:58;;;;;;;13.80;9.73;;;;;;;;;;5008294;28;20227;-70
2022/03/16 13:39:29;;;;;;;15.38;11.95;;;;;;;;;;5008506;28;20104;-70
2022/03/16 13:42:05;;;;;;;14.95;10.35;;;;;;;;;;5009053;28;20412;-71
2022/03/16 13:44:37;;;;;;;14.48;9.48;;;;;;;;;;5003063;28;20418;-70
2022/03/16 13:47:12;;;;;;;;;;;;;;;;;;4989945;28;20054;-70
2022/03/16 13:49:42;;;;;;;15.45;9.27;;;;;;;;;;5006400;28;19976;-70
2022/03/16 13:52:10;;;;;;;14.05;10.35;;;;;;;;;;5008577;28;20061;-70
2022/03/16 13:54:36;;;;;;;19.75;12.13;;;;;;;;;;5015966;28;20379;-70
2022/03/16 13:57:15;;;;;;;15.95;11.23;;;;;;;;;;4993303;28;20033;-70
2022/03/16 13:59:50;;;;;;;20.15;13.65;;;;;;;;;;5007841;28;20037;-70
2022/03/16 14:02:22;;;;;;;23.55;16.08;;;;;;;;;;5008085;28;20029;-70
2022/03/16 14:04:55;;;;;;;29.33;19.57;;;;;;;;;;5007669;28;20083;-71
2022/03/16 14:07:29;;;;;;;29.30;19.17;;;;;;;;;;5009254;28;20026;-70
2022/03/16 14:09:58;;;;;;;26.55;17.55;;;;;;;;;;5008266;28;20030;-70
2022/03/16 14:12:25;;;;;;;19.25;14.10;;;;;;;;;;4989048;28;20089;-71
2022/03/16 14:15:20;;;;;;;17.98;12.18;;;;;;;;;;5004723;28;20028;-71
2022/03/16 14:17:54;;;;;;;20.70;13.82;;;;;;;;;;4995495;28;20036;-70
2022/03/16 14:20:25;;;;;;;20.77;13.75;;;;;;;;;;5031000;23;20660;-77
2022/03/16 14:22:52;;;;;;;20.25;13.95;;;;;;;;;;5032402;28;20086;-77
2022/03/16 14:25:19;;;;;;;18.77;12.68;;;;;;;;;;5030845;28;20029;-76
2022/03/16 14:27:48;;;;;;;18.35;11.30;;;;;;;;;;5048355;28;20090;-75
2022/03/16 14:30:14;;;;;;;17.70;11.38;;;;;;;;;;5034809;28;20083;-75
2022/03/16 14:32:39;;;;;;;13.73;9.45;;;;;;;;;;5046871;28;20100;-75
2022/03/16 14:35:05;;;;;;;14.88;10.45;;;;;;;;;;5048060;28;20120;-75
2022/03/16 14:37:31;;;;;;;14.88;9.68;;;;;;;;;;5047219;28;20094;-75
2022/03/16 14:39:57;;;;;;;15.80;10.52;;;;;;;;;;5047890;28;20490;-76
2022/03/16 14:42:24;;;;;;;18.38;10.75;;;;;;;;;;5047041;28;20017;-74
2022/03/16 14:44:50;;;;;;;17.45;10.90;;;;;;;;;;5047051;28;20037;-75
2022/03/16 14:47:15;;;;;;;16.27;10.75;;;;;;;;;;5041661;28;20029;-75